createdAt,value
2023-01-19T00:02:14.493Z,-80
2023-01-19T00:05:20.960Z,-81
2023-01-19T00:08:27.532Z,-81
2023-01-19T00:11:33.376Z,-81
2023-01-19T00:14:40.076Z,-80
2023-01-19T00:17:48.496Z,-80
2023-01-19T00:20:55.108Z,-81
2023-01-19T00:24:00.852Z,-81
2023-01-19T00:27:07.702Z,-80
2023-01-19T00:30:15.419Z,-81
2023-01-19T00:33:26.118Z,-81
2023-01-19T00:36:32.091Z,-81
2023-01-19T00:39:38.930Z,-81
2023-01-19T00:42:48.488Z,-81
2023-01-19T00:45:55.246Z,-81
2023-01-19T00:49:03.662Z,-81
2023-01-19T00:52:10.994Z,-81
2023-01-19T00:55:19.490Z,-81
2023-01-19T00:58:26.183Z,-81
2023-01-19T01:01:45.907Z,-79
2023-01-19T01:04:56.901Z,-80
2023-01-19T01:08:02.870Z,-80
2023-01-19T01:11:09.480Z,-80
2023-01-19T01:14:16.653Z,-81
2023-01-19T01:17:25.125Z,-81
2023-01-19T01:20:34.930Z,-81
2023-01-19T01:23:41.595Z,-80
2023-01-19T01:26:47.446Z,-81
2023-01-19T01:29:54.200Z,-81
2023-01-19T01:33:00.358Z,-81
2023-01-19T01:36:12.061Z,-81
2023-01-19T01:39:18.059Z,-81
2023-01-19T01:42:32.774Z,-79
2023-01-19T01:45:42.021Z,-81
2023-01-19T01:48:57.444Z,-81
2023-01-19T01:52:06.315Z,-81
2023-01-19T01:55:16.802Z,-79
2023-01-19T01:58:22.705Z,-80
2023-01-19T02:01:41.846Z,-81
2023-01-19T02:04:55.119Z,-80
2023-01-19T02:08:24.324Z,-81
2023-01-19T02:11:45.335Z,-80
2023-01-19T02:14:52.016Z,-81
2023-01-19T02:17:58.728Z,-80
2023-01-19T02:21:19.055Z,-81
2023-01-19T02:24:29.629Z,-80
2023-01-19T02:27:37.984Z,-80
2023-01-19T02:30:45.578Z,-81
2023-01-19T02:33:53.048Z,-81
2023-01-19T02:37:06.818Z,-81
2023-01-19T02:40:24.619Z,-80
2023-01-19T02:43:33.784Z,-81
2023-01-19T02:46:42.233Z,-81
2023-01-19T02:49:48.189Z,-81
2023-01-19T02:53:11.069Z,-81
2023-01-19T02:56:56.046Z,-80
2023-01-19T03:00:24.838Z,-80
2023-01-19T03:03:42.365Z,-80
2023-01-19T03:06:58.274Z,-81
2023-01-19T03:10:16.073Z,-81
2023-01-19T03:13:39.319Z,-80
2023-01-19T03:16:50.953Z,-81
2023-01-19T03:19:57.668Z,-81
2023-01-19T03:23:11.215Z,-81
2023-01-19T03:26:24.993Z,-80
2023-01-19T03:29:38.133Z,-80
2023-01-19T03:32:53.861Z,-80
2023-01-19T03:36:07.268Z,-80
2023-01-19T03:39:22.083Z,-81
2023-01-19T03:42:31.292Z,-80
2023-01-19T03:45:43.471Z,-80
2023-01-19T03:48:51.055Z,-79
2023-01-19T03:51:59.660Z,-80
2023-01-19T03:55:09.983Z,-81
2023-01-19T03:58:17.469Z,-81
2023-01-19T04:01:26.453Z,-82
2023-01-19T04:04:34.136Z,-82
2023-01-19T04:07:39.953Z,-82
2023-01-19T04:10:46.610Z,-82
2023-01-19T04:13:52.795Z,-81
2023-01-19T04:17:02.212Z,-80
2023-01-19T04:20:10.791Z,-80
2023-01-19T04:23:17.355Z,-81
2023-01-19T04:26:23.271Z,-81
2023-01-19T04:29:29.990Z,-81
2023-01-19T04:32:38.461Z,-81
2023-01-19T04:35:45.182Z,-81
2023-01-19T04:38:51.237Z,-81
2023-01-19T04:41:57.837Z,-80
2023-01-19T04:45:03.873Z,-81
2023-01-19T04:48:13.064Z,-81
2023-01-19T04:51:18.838Z,-80
2023-01-19T04:54:25.934Z,-80
2023-01-19T04:57:32.003Z,-81
2023-01-19T05:00:39.612Z,-81
2023-01-19T05:03:48.087Z,-81
2023-01-19T05:06:54.917Z,-79
2023-01-19T05:10:00.868Z,-79
2023-01-19T05:13:08.174Z,-80
2023-01-19T05:16:14.291Z,-80
2023-01-19T05:19:23.831Z,-80
2023-01-19T05:22:29.814Z,-80
2023-01-19T05:25:36.523Z,-80
2023-01-19T05:28:42.463Z,-79
2023-01-19T05:31:49.266Z,-81
2023-01-19T05:34:57.809Z,-81
2023-01-19T05:38:04.456Z,-81
2023-01-19T05:41:10.292Z,-81
2023-01-19T05:44:17.122Z,-81
2023-01-19T05:47:22.905Z,-81
2023-01-19T05:50:32.280Z,-81
2023-01-19T05:53:38.136Z,-80
2023-01-19T05:56:45.743Z,-80
2023-01-19T05:59:51.598Z,-80
2023-01-19T06:02:58.458Z,-80
2023-01-19T06:06:07.964Z,-80
2023-01-19T06:09:14.531Z,-81
2023-01-19T06:12:20.316Z,-80
2023-01-19T06:15:26.855Z,-81
2023-01-19T06:18:33.648Z,-80
2023-01-19T06:21:43.125Z,-80
2023-01-19T06:24:49.024Z,-80
2023-01-19T06:27:56.153Z,-80
2023-01-19T06:31:01.989Z,-81
2023-01-19T06:34:08.635Z,-79
2023-01-19T06:37:17.864Z,-80
2023-01-19T06:40:24.429Z,-81
2023-01-19T06:43:33.549Z,-81
2023-01-19T06:46:40.207Z,-81
2023-01-19T06:49:46.797Z,-81
2023-01-19T06:52:56.959Z,-81
2023-01-19T06:56:05.104Z,-81
2023-01-19T06:59:12.779Z,-85
2023-01-19T07:06:10.363Z,-84
2023-01-19T07:09:34.608Z,-84
2023-01-19T07:12:42.410Z,-84
2023-01-19T07:15:50.272Z,-83
2023-01-19T07:18:56.319Z,-84
2023-01-19T07:22:03.368Z,-83
2023-01-19T07:25:13.363Z,-85
2023-01-19T07:28:21.337Z,-84
2023-01-19T07:31:27.693Z,-84
2023-01-19T07:34:41.805Z,-83
2023-01-19T07:41:46.011Z,-84
2023-01-19T07:44:54.353Z,-82
2023-01-19T07:48:00.717Z,-83
2023-01-19T07:51:13.067Z,-83
2023-01-19T07:54:20.942Z,-83
2023-01-19T07:57:34.394Z,-84
2023-01-19T08:00:42.176Z,-84
2023-01-19T08:03:51.861Z,-82
2023-01-19T08:07:01.986Z,-83
2023-01-19T08:10:11.016Z,-81
2023-01-19T08:13:19.481Z,-82
2023-01-19T08:16:26.044Z,-82
2023-01-19T08:19:34.365Z,-82
2023-01-19T08:22:41.084Z,-82
2023-01-19T08:25:47.701Z,-82
2023-01-19T08:28:57.945Z,-82
2023-01-19T08:32:04.043Z,-83
2023-01-19T08:35:12.069Z,-82
2023-01-19T08:38:21.199Z,-82
2023-01-19T08:41:28.072Z,-82
2023-01-19T08:44:39.393Z,-82
2023-01-19T08:47:48.145Z,-82
2023-01-19T08:50:56.296Z,-84
2023-01-19T08:54:02.919Z,-82
2023-01-19T08:57:08.624Z,-82
2023-01-19T09:00:19.796Z,-83
2023-01-19T09:03:26.030Z,-82
2023-01-19T09:06:32.931Z,-82
2023-01-19T09:09:43.543Z,-83
2023-01-19T09:12:50.568Z,-81
2023-01-19T09:15:59.055Z,-82
2023-01-19T09:19:08.708Z,-81
2023-01-19T09:22:14.717Z,-82
2023-01-19T09:25:21.350Z,-81
2023-01-19T09:28:27.306Z,-82
2023-01-19T09:31:36.651Z,-81
2023-01-19T09:34:42.708Z,-81
2023-01-19T09:37:50.309Z,-81
2023-01-19T09:40:59.422Z,-82
2023-01-19T09:44:06.715Z,-82
2023-01-19T09:47:25.400Z,-81
2023-01-19T09:50:46.719Z,-81
2023-01-19T09:54:06.093Z,-78
2023-01-19T09:57:15.009Z,-80
2023-01-19T10:00:22.876Z,-79
2023-01-19T10:03:33.649Z,-80
2023-01-19T10:06:40.079Z,-79
2023-01-19T10:10:10.191Z,-79
2023-01-19T10:13:42.195Z,-80
2023-01-19T10:17:05.632Z,-79
2023-01-19T10:20:26.937Z,-78
2023-01-19T10:23:49.056Z,-80
2023-01-19T10:27:00.083Z,-79
2023-01-19T10:30:18.102Z,-80
2023-01-19T10:33:24.135Z,-79
2023-01-19T10:36:41.133Z,-79
2023-01-19T10:39:49.065Z,-79
2023-01-19T10:42:56.848Z,-80
2023-01-19T10:46:03.293Z,-80
2023-01-19T10:49:25.957Z,-78
2023-01-19T10:52:41.374Z,-79
2023-01-19T10:55:48.045Z,-79
2023-01-19T10:58:54.874Z,-78
2023-01-19T11:02:22.510Z,-79
2023-01-19T11:05:32.581Z,-80
2023-01-19T11:08:41.806Z,-78
2023-01-19T11:11:52.368Z,-79
2023-01-19T11:15:00.197Z,-78
2023-01-19T11:18:10.383Z,-79
2023-01-19T11:21:20.446Z,-80
2023-01-19T11:24:29.540Z,-80
2023-01-19T11:27:40.184Z,-80
2023-01-19T11:30:59.459Z,-79
2023-01-19T11:34:24.998Z,-80
2023-01-19T11:37:34.893Z,-80
2023-01-19T11:40:55.028Z,-79
2023-01-19T11:44:12.923Z,-80
2023-01-19T11:47:29.497Z,-79
2023-01-19T11:50:45.567Z,-80
2023-01-19T11:53:56.149Z,-79
2023-01-19T11:57:17.800Z,-79
2023-01-19T12:00:37.804Z,-79
2023-01-19T12:03:54.864Z,-78
2023-01-19T12:07:10.814Z,-80
2023-01-19T12:10:28.840Z,-79
2023-01-19T12:13:40.368Z,-79
2023-01-19T12:16:48.866Z,-79
2023-01-19T12:20:06.641Z,-79
2023-01-19T12:23:38.229Z,-80
2023-01-19T12:26:56.375Z,-79
2023-01-19T12:30:07.260Z,-79
2023-01-19T12:33:36.221Z,-78
2023-01-19T12:36:44.162Z,-79
2023-01-19T12:39:52.526Z,-80
2023-01-19T12:43:08.735Z,-80
2023-01-19T12:46:34.832Z,-80
2023-01-19T12:49:48.659Z,-79
2023-01-19T12:53:02.773Z,-80
2023-01-19T12:56:12.936Z,-81
2023-01-19T12:59:30.663Z,-81
2023-01-19T13:02:58.972Z,-80
2023-01-19T13:06:05.664Z,-81
2023-01-19T13:09:33.498Z,-79
2023-01-19T13:12:40.171Z,-79
2023-01-19T13:15:47.334Z,-80
2023-01-19T13:19:01.805Z,-79
2023-01-19T13:22:53.130Z,-79
2023-01-19T13:26:09.174Z,-81
2023-01-19T13:29:25.969Z,-79
2023-01-19T13:32:33.154Z,-80
2023-01-19T13:35:41.909Z,-79
2023-01-19T13:38:50.530Z,-79
2023-01-19T13:42:03.012Z,-80
2023-01-19T13:45:30.652Z,-79
2023-01-19T13:48:37.270Z,-81
2023-01-19T13:51:47.912Z,-81
2023-01-19T13:55:02.357Z,-80
2023-01-19T13:58:26.205Z,-79
2023-01-19T14:01:33.170Z,-80
2023-01-19T14:04:40.136Z,-82
2023-01-19T14:07:48.637Z,-81
2023-01-19T14:11:07.093Z,-81
2023-01-19T14:14:27.574Z,-80
2023-01-19T14:17:35.789Z,-80
2023-01-19T14:20:42.725Z,-81
2023-01-19T14:23:57.132Z,-82
2023-01-19T14:27:26.221Z,-81
2023-01-19T14:30:35.278Z,-80
2023-01-19T14:33:47.262Z,-80
2023-01-19T14:36:55.520Z,-81
2023-01-19T14:40:20.367Z,-81
2023-01-19T14:43:28.744Z,-81
2023-01-19T14:46:34.841Z,-81
2023-01-19T14:49:50.259Z,-81
2023-01-19T14:53:03.676Z,-81
2023-01-19T14:56:13.587Z,-81
2023-01-19T14:59:19.419Z,-81
2023-01-19T15:02:26.181Z,-81
2023-01-19T15:05:32.313Z,-81
2023-01-19T15:08:39.209Z,-79
2023-01-19T15:11:52.594Z,-79
2023-01-19T15:15:00.150Z,-79
2023-01-19T15:18:10.032Z,-80
2023-01-19T15:21:20.214Z,-79
2023-01-19T15:24:27.969Z,-80
2023-01-19T15:27:37.118Z,-80
2023-01-19T15:30:43.380Z,-81
2023-01-19T15:33:50.945Z,-80
2023-01-19T15:36:56.859Z,-81
2023-01-19T15:40:03.554Z,-80
2023-01-19T15:43:13.703Z,-81
2023-01-19T15:46:23.837Z,-82
2023-01-19T15:49:31.072Z,-81
2023-01-19T15:52:37.565Z,-81
2023-01-19T15:55:46.148Z,-81
2023-01-19T15:58:56.374Z,-82
2023-01-19T16:02:02.885Z,-83
2023-01-19T16:05:11.159Z,-83
2023-01-19T16:08:17.702Z,-82
2023-01-19T16:11:24.291Z,-82
2023-01-19T16:14:32.915Z,-82
2023-01-19T16:17:40.025Z,-83
2023-01-19T16:20:45.955Z,-81
2023-01-19T16:23:52.785Z,-82
2023-01-19T16:26:58.651Z,-82
2023-01-19T16:30:10.049Z,-82
2023-01-19T16:33:16.397Z,-82
2023-01-19T16:36:27.020Z,-82
2023-01-19T16:39:32.896Z,-82
2023-01-19T16:42:40.908Z,-82
2023-01-19T16:46:04.677Z,-82
2023-01-19T16:49:17.863Z,-82
2023-01-19T16:52:23.846Z,-82
2023-01-19T16:55:30.419Z,-82
2023-01-19T16:58:37.632Z,-82
2023-01-19T17:01:50.595Z,-83
2023-01-19T17:04:56.678Z,-83
2023-01-19T17:08:03.502Z,-82
2023-01-19T17:11:19.578Z,-82
2023-01-19T17:14:26.163Z,-83
2023-01-19T17:17:35.342Z,-82
2023-01-19T17:20:43.459Z,-83
2023-01-19T17:23:53.654Z,-80
2023-01-19T17:27:00.444Z,-80
2023-01-19T17:30:06.424Z,-80
2023-01-19T17:33:15.909Z,-81
2023-01-19T17:36:25.566Z,-79
2023-01-19T17:39:32.458Z,-80
2023-01-19T17:42:43.771Z,-80
2023-01-19T17:45:50.367Z,-81
2023-01-19T17:49:01.723Z,-80
2023-01-19T17:52:08.829Z,-80
2023-01-19T17:55:15.049Z,-80
2023-01-19T17:58:23.734Z,-80
2023-01-19T18:01:32.647Z,-80
2023-01-19T18:04:43.534Z,-81
2023-01-19T18:07:50.191Z,-80
2023-01-19T18:11:14.279Z,-80
2023-01-19T18:14:20.234Z,-81
2023-01-19T18:17:26.791Z,-80
2023-01-19T18:20:37.852Z,-80
2023-01-19T18:23:46.002Z,-80
2023-01-19T18:26:53.218Z,-79
2023-01-19T18:30:01.549Z,-80
2023-01-19T18:33:07.731Z,-80
2023-01-19T18:36:18.318Z,-79
2023-01-19T18:39:24.238Z,-79
2023-01-19T18:42:30.942Z,-79
2023-01-19T18:45:38.289Z,-80
2023-01-19T18:48:45.333Z,-81
2023-01-19T18:51:53.850Z,-80
2023-01-19T18:55:00.568Z,-80
2023-01-19T18:58:07.279Z,-80
2023-01-19T19:01:32.264Z,-80
2023-01-19T19:04:38.729Z,-79
2023-01-19T19:07:48.313Z,-80
2023-01-19T19:10:54.411Z,-79
2023-01-19T19:14:04.825Z,-80
2023-01-19T19:17:11.007Z,-80
2023-01-19T19:20:18.130Z,-80
2023-01-19T19:23:26.769Z,-80
2023-01-19T19:26:33.326Z,-80
2023-01-19T19:29:39.213Z,-79
2023-01-19T19:32:45.731Z,-79
2023-01-19T19:35:51.670Z,-80
2023-01-19T19:39:02.795Z,-79
2023-01-19T19:42:08.762Z,-80
2023-01-19T19:45:16.130Z,-80
2023-01-19T19:48:23.136Z,-80
2023-01-19T19:51:31.282Z,-81
2023-01-19T19:54:42.092Z,-79
2023-01-19T19:57:48.915Z,-81
2023-01-19T20:00:55.236Z,-80
2023-01-19T20:04:10.971Z,-80
2023-01-19T20:07:18.032Z,-80
2023-01-19T20:10:30.145Z,-80
2023-01-19T20:13:37.316Z,-80
2023-01-19T20:16:43.972Z,-79
2023-01-19T20:19:49.999Z,-80
2023-01-19T20:22:56.673Z,-81
2023-01-19T20:26:08.111Z,-80
2023-01-19T20:29:15.212Z,-81
2023-01-19T20:32:23.036Z,-81
2023-01-19T20:35:29.874Z,-81
2023-01-19T20:38:36.260Z,-81
2023-01-19T20:41:46.315Z,-80
2023-01-19T20:44:52.416Z,-81
2023-01-19T20:47:59.115Z,-82
2023-01-19T20:51:08.579Z,-80
2023-01-19T20:54:17.850Z,-81
2023-01-19T20:57:26.664Z,-80
2023-01-19T21:00:33.429Z,-81
2023-01-19T21:03:39.393Z,-81
2023-01-19T21:06:48.052Z,-81
2023-01-19T21:09:53.858Z,-81
2023-01-19T21:13:03.031Z,-81
2023-01-19T21:16:11.032Z,-79
2023-01-19T21:19:18.101Z,-80
2023-01-19T21:22:26.329Z,-80
2023-01-19T21:25:37.477Z,-78
2023-01-19T21:28:46.440Z,-81
2023-01-19T21:31:57.552Z,-81
2023-01-19T21:35:03.630Z,-79
2023-01-19T21:38:10.784Z,-80
2023-01-19T21:41:17.364Z,-79
2023-01-19T21:44:26.818Z,-80
2023-01-19T21:47:32.684Z,-79
2023-01-19T21:50:39.861Z,-80
2023-01-19T21:53:47.363Z,-80
2023-01-19T21:56:54.197Z,-80
2023-01-19T22:00:02.684Z,-80
2023-01-19T22:03:14.721Z,-81
2023-01-19T22:06:20.697Z,-81
2023-01-19T22:09:27.345Z,-81
2023-01-19T22:12:33.255Z,-81
2023-01-19T22:15:42.551Z,-80
2023-01-19T22:18:54.215Z,-80
2023-01-19T22:22:02.351Z,-81
2023-01-19T22:25:09.482Z,-81
2023-01-19T22:28:16.216Z,-80
2023-01-19T22:31:26.305Z,-81
2023-01-19T22:34:32.986Z,-80
2023-01-19T22:37:40.155Z,-81
2023-01-19T22:40:46.720Z,-80
2023-01-19T22:43:56.680Z,-80
2023-01-19T22:47:05.853Z,-80
2023-01-19T22:50:13.511Z,-80
2023-01-19T22:53:20.073Z,-79
2023-01-19T22:56:28.944Z,-79
2023-01-19T22:59:35.617Z,-79
2023-01-19T23:02:44.053Z,-78
2023-01-19T23:05:50.748Z,-79
2023-01-19T23:09:00.491Z,-80
2023-01-19T23:12:08.009Z,-79
2023-01-19T23:15:14.909Z,-80
2023-01-19T23:18:24.241Z,-79
2023-01-19T23:21:33.558Z,-80
2023-01-19T23:24:40.402Z,-79
2023-01-19T23:27:46.247Z,-79
2023-01-19T23:30:53.031Z,-79
2023-01-19T23:34:05.034Z,-79
2023-01-19T23:37:12.027Z,-79
2023-01-19T23:40:18.314Z,-79
2023-01-19T23:43:24.894Z,-79
2023-01-19T23:46:31.396Z,-79
2023-01-19T23:49:41.355Z,-79
2023-01-19T23:52:47.310Z,-80
2023-01-19T23:55:53.950Z,-80
2023-01-19T23:59:02.792Z,-80
